Aérodrome :
LOGIN :

S'inscrire | Disclaimer

   EN    FR    IT 

 










Légende :    VFR   VFR Marginal   IFR   IFR Intensif   IFR Très Intensif
Visi : 
Plafond : 
>= 8 km
>= 3000ft
5 à 8 km
1000 à 3000 ft
1500m à 5 km
500 à 1000 ft
800 à 1500m
200 à 500 ft
< 800m
< 200 ft
Symboles :   Orages  Brouillard  Fortes neiges  Fortes précipitations  Vent > 20 kt
SIGMETs :   Divers  Orages  Givrage  Turbulence  Onde Orograph.  Cendres Volcan.






- Altitude de l'aérodrome : 96 ft
- Code IATA : REG


LICR - Reggio Calabria

DERNIER METAR :
  • 281520Z AUTO 34008KT 310V010 9999 BKN022/// BKN037/// 26/19 Q1016

METARs EXPIRÉS :
  • 281450Z AUTO 23003KT 190V320 9999 FEW023/// BKN047/// 27/21 Q1016
  • 281420Z AUTO 23007KT 9999 FEW029/// 26/21 Q1016
  • 281350Z AUTO 25006KT 210V300 9999 FEW030/// 28/21 Q1015
  • 281320Z AUTO 34008KT 300V030 9999 FEW068/// 29/19 Q1015
  • 281250Z AUTO 36010KT 9999 FEW057/// 30/18 Q1015

TAF TAF LICR
Valide du 28 à 12h jusqu'au 29 à 12h UTC


281100Z 2812/2912 36012KT 9999 SCT030
PROB40
TEMPO 2812/2815 SHRA



MET'MAP, la Météo Aéronautique d'un coup d'oeil ! - Copyright ORBIFLY Décembre 2007 - Disclaimer

ORBIFLY MET'MAP TEAM :

Programmation & Développement : Alexandra Zaïnal
Sur une idée originale de : Baudouin d'Aumeries
Assistance à la programmation : Marc-Olivier Méhu
Soutien technique & logistique : Manuel Goepfert

Contact : metmap@orbifly.com




SOURCES & CREDITS :

   NOAA